Industry, Kansas
Current Conditions -  °F | °C
As of 11:58 AM on Thursday 29 Jan 2015 (Local Time) from KFRI Reporting Station
Overcast Overcast  
Wind Chill: 39°   Ceiling: 3900
Heat Index: 44°   Visibility: 9mi
Dew Point: 27°   Wind: 12mph
Humidity: 50%   Direction: 340°NNW
Pressure: 30.44"   Gusts: 23mph
Location:  39.0421°N, 97.1702°W
Report Text: KFRI 291758Z AUTO 34010G20KT 9SM OVC039 07/M03 A3044 RMK AO2 SLP309 60000 T00691030 10069 20044 51022
Loading
Personal Weather Stations






























Interactive Weather Map New forecast layout! Learn more

10-Day Weather Forecast

Advertisements
Track Severe Weather on mobile